sensor_id;sensor_type;location;lat;lon;timestamp;temperature;humidity
50556;DHT22;36508;52.512;13.450;2023-04-10T00:01:50;8.90;99.90
50556;DHT22;36508;52.512;13.450;2023-04-10T00:04:19;8.80;99.90
50556;DHT22;36508;52.512;13.450;2023-04-10T00:06:47;8.80;99.90
50556;DHT22;36508;52.512;13.450;2023-04-10T00:09:14;8.80;99.90
50556;DHT22;36508;52.512;13.450;2023-04-10T00:11:40;8.70;99.90
50556;DHT22;36508;52.512;13.450;2023-04-10T00:14:06;8.70;99.90
50556;DHT22;36508;52.512;13.450;2023-04-10T00:16:31;8.80;99.90
50556;DHT22;36508;52.512;13.450;2023-04-10T00:18:57;8.80;99.90
50556;DHT22;36508;52.512;13.450;2023-04-10T00:21:24;8.80;99.90
50556;DHT22;36508;52.512;13.450;2023-04-10T00:23:50;8.80;99.90
50556;DHT22;36508;52.512;13.450;2023-04-10T00:26:16;8.70;99.90
50556;DHT22;36508;52.512;13.450;2023-04-10T00:28:42;8.70;99.90
50556;DHT22;36508;52.512;13.450;2023-04-10T00:31:07;8.70;99.90
50556;DHT22;36508;52.512;13.450;2023-04-10T00:33:33;8.80;99.90
50556;DHT22;36508;52.512;13.450;2023-04-10T00:35:59;8.80;99.90
50556;DHT22;36508;52.512;13.450;2023-04-10T00:38:25;8.80;99.90
50556;DHT22;36508;52.512;13.450;2023-04-10T00:40:51;8.80;99.90
50556;DHT22;36508;52.512;13.450;2023-04-10T00:43:20;8.80;99.90
50556;DHT22;36508;52.512;13.450;2023-04-10T00:45:46;8.70;99.90
50556;DHT22;36508;52.512;13.450;2023-04-10T00:48:14;8.70;99.90
50556;DHT22;36508;52.512;13.450;2023-04-10T00:50:40;8.70;99.90
50556;DHT22;36508;52.512;13.450;2023-04-10T00:53:07;8.50;99.90
50556;DHT22;36508;52.512;13.450;2023-04-10T00:55:32;8.50;99.90
50556;DHT22;36508;52.512;13.450;2023-04-10T00:57:58;8.50;99.90
50556;DHT22;36508;52.512;13.450;2023-04-10T01:00:24;8.40;99.90
50556;DHT22;36508;52.512;13.450;2023-04-10T01:02:50;8.30;99.90
50556;DHT22;36508;52.512;13.450;2023-04-10T01:05:16;8.40;99.90
50556;DHT22;36508;52.512;13.450;2023-04-10T01:10:16;8.20;99.90
50556;DHT22;36508;52.512;13.450;2023-04-10T01:15:27;8.30;99.90
50556;DHT22;36508;52.512;13.450;2023-04-10T01:20:24;8.30;99.90
50556;DHT22;36508;52.512;13.450;2023-04-10T01:25:59;8.20;99.90
50556;DHT22;36508;52.512;13.450;2023-04-10T01:31:16;8.00;99.90
50556;DHT22;36508;52.512;13.450;2023-04-10T01:33:47;8.00;99.90
50556;DHT22;36508;52.512;13.450;2023-04-10T01:36:23;8.10;99.90
50556;DHT22;36508;52.512;13.450;2023-04-10T01:38:53;8.00;99.90
50556;DHT22;36508;52.512;13.450;2023-04-10T01:41:21;7.90;99.90
50556;DHT22;36508;52.512;13.450;2023-04-10T01:43:49;7.80;99.90
50556;DHT22;36508;52.512;13.450;2023-04-10T01:46:17;8.00;99.90
50556;DHT22;36508;52.512;13.450;2023-04-10T01:48:45;8.00;99.90
50556;DHT22;36508;52.512;13.450;2023-04-10T01:51:12;7.90;99.90
50556;DHT22;36508;52.512;13.450;2023-04-10T01:53:39;7.80;99.90
50556;DHT22;36508;52.512;13.450;2023-04-10T01:56:08;7.80;99.90
50556;DHT22;36508;52.512;13.450;2023-04-10T01:58:35;7.90;99.90
50556;DHT22;36508;52.512;13.450;2023-04-10T02:01:01;7.90;99.90
50556;DHT22;36508;52.512;13.450;2023-04-10T02:03:27;7.90;99.90
50556;DHT22;36508;52.512;13.450;2023-04-10T02:08:39;8.00;99.90
50556;DHT22;36508;52.512;13.450;2023-04-10T02:11:14;7.90;99.90
50556;DHT22;36508;52.512;13.450;2023-04-10T02:13:41;7.80;99.90
50556;DHT22;36508;52.512;13.450;2023-04-10T02:16:07;7.80;99.90
50556;DHT22;36508;52.512;13.450;2023-04-10T02:18:35;7.70;99.90
50556;DHT22;36508;52.512;13.450;2023-04-10T02:21:01;7.80;99.90
50556;DHT22;36508;52.512;13.450;2023-04-10T02:23:28;7.70;99.90
50556;DHT22;36508;52.512;13.450;2023-04-10T02:25:54;7.20;99.90
50556;DHT22;36508;52.512;13.450;2023-04-10T02:28:23;7.30;99.90
50556;DHT22;36508;52.512;13.450;2023-04-10T02:30:49;7.40;99.90
50556;DHT22;36508;52.512;13.450;2023-04-10T02:33:15;7.40;99.90
50556;DHT22;36508;52.512;13.450;2023-04-10T02:35:41;7.50;99.90
50556;DHT22;36508;52.512;13.450;2023-04-10T02:38:07;7.60;99.90
50556;DHT22;36508;52.512;13.450;2023-04-10T02:40:33;7.60;99.90
50556;DHT22;36508;52.512;13.450;2023-04-10T02:42:59;7.60;99.90
50556;DHT22;36508;52.512;13.450;2023-04-10T02:45:26;7.60;99.90
50556;DHT22;36508;52.512;13.450;2023-04-10T02:47:52;7.40;99.90
50556;DHT22;36508;52.512;13.450;2023-04-10T02:50:18;7.40;99.90
50556;DHT22;36508;52.512;13.450;2023-04-10T02:52:45;7.40;99.90
50556;DHT22;36508;52.512;13.450;2023-04-10T02:55:11;7.50;99.90
50556;DHT22;36508;52.512;13.450;2023-04-10T02:57:37;7.30;99.90
50556;DHT22;36508;52.512;13.450;2023-04-10T03:00:04;7.30;99.90
50556;DHT22;36508;52.512;13.450;2023-04-10T03:02:30;7.40;99.90
50556;DHT22;36508;52.512;13.450;2023-04-10T03:04:57;7.20;99.90
50556;DHT22;36508;52.512;13.450;2023-04-10T03:07:23;7.10;99.90
50556;DHT22;36508;52.512;13.450;2023-04-10T03:09:50;7.20;99.90
50556;DHT22;36508;52.512;13.450;2023-04-10T03:12:16;7.30;99.90
50556;DHT22;36508;52.512;13.450;2023-04-10T03:14:42;7.30;99.90
50556;DHT22;36508;52.512;13.450;2023-04-10T03:17:08;7.30;99.90
50556;DHT22;36508;52.512;13.450;2023-04-10T03:19:34;7.30;99.90
50556;DHT22;36508;52.512;13.450;2023-04-10T03:21:59;7.30;99.90
50556;DHT22;36508;52.512;13.450;2023-04-10T03:24:25;7.30;99.90
50556;DHT22;36508;52.512;13.450;2023-04-10T03:26:51;7.30;99.90
50556;DHT22;36508;52.512;13.450;2023-04-10T03:29:17;7.40;99.90
50556;DHT22;36508;52.512;13.450;2023-04-10T03:31:43;7.30;99.90
50556;DHT22;36508;52.512;13.450;2023-04-10T03:34:09;7.10;99.90
50556;DHT22;36508;52.512;13.450;2023-04-10T03:36:35;7.20;99.90
50556;DHT22;36508;52.512;13.450;2023-04-10T03:39:00;7.30;99.90
50556;DHT22;36508;52.512;13.450;2023-04-10T03:41:26;7.30;99.90
50556;DHT22;36508;52.512;13.450;2023-04-10T03:43:52;7.20;99.90
50556;DHT22;36508;52.512;13.450;2023-04-10T03:46:18;7.30;99.90
50556;DHT22;36508;52.512;13.450;2023-04-10T03:48:44;7.20;99.90
50556;DHT22;36508;52.512;13.450;2023-04-10T03:51:10;7.20;99.90
50556;DHT22;36508;52.512;13.450;2023-04-10T03:53:37;7.10;99.90
50556;DHT22;36508;52.512;13.450;2023-04-10T03:56:04;7.10;99.90
50556;DHT22;36508;52.512;13.450;2023-04-10T03:58:30;6.90;99.90
50556;DHT22;36508;52.512;13.450;2023-04-10T04:00:55;7.00;99.90
50556;DHT22;36508;52.512;13.450;2023-04-10T04:03:22;7.10;99.90
50556;DHT22;36508;52.512;13.450;2023-04-10T04:05:47;7.10;99.90
50556;DHT22;36508;52.512;13.450;2023-04-10T04:08:13;7.10;99.90
50556;DHT22;36508;52.512;13.450;2023-04-10T04:10:39;7.10;99.90
50556;DHT22;36508;52.512;13.450;2023-04-10T04:13:05;7.10;99.90
50556;DHT22;36508;52.512;13.450;2023-04-10T04:15:33;7.10;99.90
50556;DHT22;36508;52.512;13.450;2023-04-10T04:17:59;7.10;99.90
50556;DHT22;36508;52.512;13.450;2023-04-10T04:20:25;7.10;99.90
50556;DHT22;36508;52.512;13.450;2023-04-10T04:22:51;7.10;99.90
50556;DHT22;36508;52.512;13.450;2023-04-10T04:25:18;7.10;99.90
50556;DHT22;36508;52.512;13.450;2023-04-10T04:27:44;7.00;99.90
50556;DHT22;36508;52.512;13.450;2023-04-10T04:30:10;7.00;99.90
50556;DHT22;36508;52.512;13.450;2023-04-10T04:32:36;6.90;99.90
50556;DHT22;36508;52.512;13.450;2023-04-10T04:35:01;7.00;99.90
50556;DHT22;36508;52.512;13.450;2023-04-10T04:37:27;7.00;99.90
50556;DHT22;36508;52.512;13.450;2023-04-10T04:39:53;7.00;99.90
50556;DHT22;36508;52.512;13.450;2023-04-10T04:42:18;7.10;99.90
50556;DHT22;36508;52.512;13.450;2023-04-10T04:44:44;7.10;99.90
50556;DHT22;36508;52.512;13.450;2023-04-10T04:47:10;7.20;99.90
50556;DHT22;36508;52.512;13.450;2023-04-10T04:49:35;7.30;99.90
50556;DHT22;36508;52.512;13.450;2023-04-10T04:52:01;7.30;99.90
50556;DHT22;36508;52.512;13.450;2023-04-10T04:54:27;7.30;99.90
50556;DHT22;36508;52.512;13.450;2023-04-10T04:56:52;7.40;99.90
50556;DHT22;36508;52.512;13.450;2023-04-10T04:59:18;7.30;99.90
50556;DHT22;36508;52.512;13.450;2023-04-10T05:01:44;7.30;99.90
50556;DHT22;36508;52.512;13.450;2023-04-10T05:04:09;7.40;99.90
50556;DHT22;36508;52.512;13.450;2023-04-10T05:06:35;7.50;99.90
50556;DHT22;36508;52.512;13.450;2023-04-10T05:09:01;7.50;99.90
50556;DHT22;36508;52.512;13.450;2023-04-10T05:11:27;7.50;99.90
50556;DHT22;36508;52.512;13.450;2023-04-10T05:13:52;7.60;99.90
50556;DHT22;36508;52.512;13.450;2023-04-10T05:16:18;7.50;99.90
50556;DHT22;36508;52.512;13.450;2023-04-10T05:18:44;7.50;99.90
50556;DHT22;36508;52.512;13.450;2023-04-10T05:21:11;7.20;99.90
50556;DHT22;36508;52.512;13.450;2023-04-10T05:23:37;6.90;99.90
50556;DHT22;36508;52.512;13.450;2023-04-10T05:26:04;6.80;99.90
50556;DHT22;36508;52.512;13.450;2023-04-10T05:28:30;6.80;99.90
50556;DHT22;36508;52.512;13.450;2023-04-10T05:30:56;6.90;99.90
50556;DHT22;36508;52.512;13.450;2023-04-10T05:33:22;6.80;99.90
50556;DHT22;36508;52.512;13.450;2023-04-10T05:35:48;7.00;99.90
50556;DHT22;36508;52.512;13.450;2023-04-10T05:38:13;7.40;99.90
50556;DHT22;36508;52.512;13.450;2023-04-10T05:40:39;7.80;99.90
50556;DHT22;36508;52.512;13.450;2023-04-10T05:43:04;8.10;99.90
50556;DHT22;36508;52.512;13.450;2023-04-10T05:45:30;8.30;99.90
50556;DHT22;36508;52.512;13.450;2023-04-10T05:47:56;8.30;99.90
50556;DHT22;36508;52.512;13.450;2023-04-10T05:50:21;8.40;99.90
50556;DHT22;36508;52.512;13.450;2023-04-10T05:52:47;8.40;99.90
50556;DHT22;36508;52.512;13.450;2023-04-10T05:55:13;8.50;99.90
50556;DHT22;36508;52.512;13.450;2023-04-10T05:57:39;8.40;99.90
50556;DHT22;36508;52.512;13.450;2023-04-10T06:00:05;8.30;99.90
50556;DHT22;36508;52.512;13.450;2023-04-10T06:02:31;8.50;99.90
50556;DHT22;36508;52.512;13.450;2023-04-10T06:04:57;8.60;99.90
50556;DHT22;36508;52.512;13.450;2023-04-10T06:07:22;8.80;99.90
50556;DHT22;36508;52.512;13.450;2023-04-10T06:09:48;8.80;99.90
50556;DHT22;36508;52.512;13.450;2023-04-10T06:12:14;8.90;99.90
50556;DHT22;36508;52.512;13.450;2023-04-10T06:14:39;8.90;99.90
50556;DHT22;36508;52.512;13.450;2023-04-10T06:17:05;9.00;99.90
50556;DHT22;36508;52.512;13.450;2023-04-10T06:19:31;9.20;99.90
50556;DHT22;36508;52.512;13.450;2023-04-10T06:21:56;9.20;99.90
50556;DHT22;36508;52.512;13.450;2023-04-10T06:24:22;9.10;99.90
50556;DHT22;36508;52.512;13.450;2023-04-10T06:26:47;8.90;99.90
50556;DHT22;36508;52.512;13.450;2023-04-10T06:29:13;8.90;99.90
50556;DHT22;36508;52.512;13.450;2023-04-10T06:31:39;9.10;99.90
50556;DHT22;36508;52.512;13.450;2023-04-10T06:34:04;9.30;99.90
50556;DHT22;36508;52.512;13.450;2023-04-10T06:36:30;9.30;99.90
50556;DHT22;36508;52.512;13.450;2023-04-10T06:38:56;9.40;99.90
50556;DHT22;36508;52.512;13.450;2023-04-10T06:41:21;9.50;99.90
50556;DHT22;36508;52.512;13.450;2023-04-10T06:43:47;9.50;99.90
50556;DHT22;36508;52.512;13.450;2023-04-10T06:46:12;9.50;99.90
50556;DHT22;36508;52.512;13.450;2023-04-10T06:48:40;9.50;99.90
50556;DHT22;36508;52.512;13.450;2023-04-10T06:51:06;9.50;99.90
50556;DHT22;36508;52.512;13.450;2023-04-10T06:53:31;9.50;99.90
50556;DHT22;36508;52.512;13.450;2023-04-10T06:55:57;9.60;99.90
50556;DHT22;36508;52.512;13.450;2023-04-10T06:58:23;9.70;99.90
50556;DHT22;36508;52.512;13.450;2023-04-10T07:00:49;9.80;99.90
50556;DHT22;36508;52.512;13.450;2023-04-10T07:03:14;9.90;99.90
50556;DHT22;36508;52.512;13.450;2023-04-10T07:05:40;9.90;99.90
50556;DHT22;36508;52.512;13.450;2023-04-10T07:08:05;9.80;99.90
50556;DHT22;36508;52.512;13.450;2023-04-10T07:10:32;9.90;99.90
50556;DHT22;36508;52.512;13.450;2023-04-10T07:12:57;9.90;99.90
50556;DHT22;36508;52.512;13.450;2023-04-10T07:15:23;10.00;99.90
50556;DHT22;36508;52.512;13.450;2023-04-10T07:17:50;10.00;99.90
50556;DHT22;36508;52.512;13.450;2023-04-10T07:20:15;10.10;99.90
50556;DHT22;36508;52.512;13.450;2023-04-10T07:22:41;10.10;99.90
50556;DHT22;36508;52.512;13.450;2023-04-10T07:25:07;10.10;99.90
50556;DHT22;36508;52.512;13.450;2023-04-10T07:27:33;10.10;99.90
50556;DHT22;36508;52.512;13.450;2023-04-10T07:29:58;10.10;99.90
50556;DHT22;36508;52.512;13.450;2023-04-10T07:32:24;10.10;99.90
50556;DHT22;36508;52.512;13.450;2023-04-10T07:34:49;10.30;99.90
50556;DHT22;36508;52.512;13.450;2023-04-10T07:37:15;10.30;99.90
50556;DHT22;36508;52.512;13.450;2023-04-10T07:39:45;10.20;99.90
50556;DHT22;36508;52.512;13.450;2023-04-10T07:42:10;10.10;99.90
50556;DHT22;36508;52.512;13.450;2023-04-10T07:44:36;10.00;99.90
50556;DHT22;36508;52.512;13.450;2023-04-10T07:47:02;10.10;99.90
50556;DHT22;36508;52.512;13.450;2023-04-10T07:49:28;10.20;99.90
50556;DHT22;36508;52.512;13.450;2023-04-10T07:51:53;10.30;99.90
50556;DHT22;36508;52.512;13.450;2023-04-10T07:54:19;10.30;99.90
50556;DHT22;36508;52.512;13.450;2023-04-10T07:56:45;10.40;99.90
50556;DHT22;36508;52.512;13.450;2023-04-10T07:59:11;10.50;99.90
50556;DHT22;36508;52.512;13.450;2023-04-10T08:01:37;10.50;99.90
50556;DHT22;36508;52.512;13.450;2023-04-10T08:04:02;10.50;99.90
50556;DHT22;36508;52.512;13.450;2023-04-10T08:06:28;10.60;99.90
50556;DHT22;36508;52.512;13.450;2023-04-10T08:08:54;10.80;99.90
50556;DHT22;36508;52.512;13.450;2023-04-10T08:11:26;10.90;99.90
50556;DHT22;36508;52.512;13.450;2023-04-10T08:13:54;11.00;99.90
50556;DHT22;36508;52.512;13.450;2023-04-10T08:16:28;11.00;99.90
50556;DHT22;36508;52.512;13.450;2023-04-10T08:18:55;11.10;99.90
50556;DHT22;36508;52.512;13.450;2023-04-10T08:21:26;11.20;99.90
50556;DHT22;36508;52.512;13.450;2023-04-10T08:23:56;11.30;99.90
50556;DHT22;36508;52.512;13.450;2023-04-10T08:26:23;11.40;99.90
50556;DHT22;36508;52.512;13.450;2023-04-10T08:28:51;11.40;99.90
50556;DHT22;36508;52.512;13.450;2023-04-10T08:31:17;11.50;99.90
50556;DHT22;36508;52.512;13.450;2023-04-10T08:33:43;11.60;99.90
50556;DHT22;36508;52.512;13.450;2023-04-10T08:36:11;11.70;99.90
50556;DHT22;36508;52.512;13.450;2023-04-10T08:38:53;11.90;99.90
50556;DHT22;36508;52.512;13.450;2023-04-10T08:41:19;11.90;99.90
50556;DHT22;36508;52.512;13.450;2023-04-10T08:43:45;12.00;99.90
50556;DHT22;36508;52.512;13.450;2023-04-10T08:46:11;12.10;99.90
50556;DHT22;36508;52.512;13.450;2023-04-10T08:48:46;12.20;99.90
50556;DHT22;36508;52.512;13.450;2023-04-10T08:51:19;12.30;99.90
50556;DHT22;36508;52.512;13.450;2023-04-10T08:53:49;12.40;99.90
50556;DHT22;36508;52.512;13.450;2023-04-10T08:56:17;12.40;99.90
50556;DHT22;36508;52.512;13.450;2023-04-10T08:58:43;12.50;99.90
50556;DHT22;36508;52.512;13.450;2023-04-10T09:01:09;12.60;99.90
50556;DHT22;36508;52.512;13.450;2023-04-10T09:03:36;12.80;99.90
50556;DHT22;36508;52.512;13.450;2023-04-10T09:06:03;12.90;99.90
50556;DHT22;36508;52.512;13.450;2023-04-10T09:08:29;13.20;99.90
50556;DHT22;36508;52.512;13.450;2023-04-10T09:10:56;13.30;99.90
50556;DHT22;36508;52.512;13.450;2023-04-10T09:13:42;13.20;99.90
50556;DHT22;36508;52.512;13.450;2023-04-10T09:16:09;13.20;99.90
50556;DHT22;36508;52.512;13.450;2023-04-10T09:18:46;13.30;99.90
50556;DHT22;36508;52.512;13.450;2023-04-10T09:21:16;13.30;99.90
50556;DHT22;36508;52.512;13.450;2023-04-10T09:23:43;13.40;99.90
50556;DHT22;36508;52.512;13.450;2023-04-10T09:26:27;13.50;99.90
50556;DHT22;36508;52.512;13.450;2023-04-10T09:29:01;13.70;99.90
50556;DHT22;36508;52.512;13.450;2023-04-10T09:31:29;13.70;99.90
50556;DHT22;36508;52.512;13.450;2023-04-10T09:34:09;13.80;99.90
50556;DHT22;36508;52.512;13.450;2023-04-10T09:36:35;13.80;99.90
50556;DHT22;36508;52.512;13.450;2023-04-10T09:39:03;13.80;99.90
50556;DHT22;36508;52.512;13.450;2023-04-10T09:41:28;13.90;99.90
50556;DHT22;36508;52.512;13.450;2023-04-10T09:44:09;14.10;99.90
50556;DHT22;36508;52.512;13.450;2023-04-10T09:46:35;14.20;99.90
50556;DHT22;36508;52.512;13.450;2023-04-10T09:49:01;14.50;99.90
50556;DHT22;36508;52.512;13.450;2023-04-10T09:51:34;14.50;99.90
50556;DHT22;36508;52.512;13.450;2023-04-10T09:54:01;14.60;99.90
50556;DHT22;36508;52.512;13.450;2023-04-10T09:56:28;14.80;99.90
50556;DHT22;36508;52.512;13.450;2023-04-10T09:58:59;14.90;99.90
50556;DHT22;36508;52.512;13.450;2023-04-10T10:01:29;14.90;99.90
50556;DHT22;36508;52.512;13.450;2023-04-10T10:04:00;14.80;99.90
50556;DHT22;36508;52.512;13.450;2023-04-10T10:06:26;15.10;99.90
50556;DHT22;36508;52.512;13.450;2023-04-10T10:08:53;15.20;99.90
50556;DHT22;36508;52.512;13.450;2023-04-10T10:11:22;15.40;99.90
50556;DHT22;36508;52.512;13.450;2023-04-10T10:13:50;15.40;99.90
50556;DHT22;36508;52.512;13.450;2023-04-10T10:16:30;15.60;99.90
50556;DHT22;36508;52.512;13.450;2023-04-10T10:19:11;15.70;99.90
50556;DHT22;36508;52.512;13.450;2023-04-10T10:21:39;15.90;99.90
50556;DHT22;36508;52.512;13.450;2023-04-10T10:24:09;15.90;99.90
50556;DHT22;36508;52.512;13.450;2023-04-10T10:26:39;16.00;99.90
50556;DHT22;36508;52.512;13.450;2023-04-10T10:29:06;16.20;99.90
50556;DHT22;36508;52.512;13.450;2023-04-10T10:31:35;16.40;99.90
50556;DHT22;36508;52.512;13.450;2023-04-10T10:34:02;17.10;99.90
50556;DHT22;36508;52.512;13.450;2023-04-10T10:36:30;19.40;99.90
50556;DHT22;36508;52.512;13.450;2023-04-10T10:41:29;24.20;99.90
50556;DHT22;36508;52.512;13.450;2023-04-10T10:46:42;26.30;98.70
50556;DHT22;36508;52.512;13.450;2023-04-10T10:49:08;27.50;94.80
50556;DHT22;36508;52.512;13.450;2023-04-10T10:54:27;28.10;91.20
50556;DHT22;36508;52.512;13.450;2023-04-10T10:56:53;28.70;85.00
50556;DHT22;36508;52.512;13.450;2023-04-10T11:02:17;30.10;82.60
50556;DHT22;36508;52.512;13.450;2023-04-10T11:04:47;29.80;80.20
50556;DHT22;36508;52.512;13.450;2023-04-10T11:07:14;29.80;75.90
50556;DHT22;36508;52.512;13.450;2023-04-10T11:09:45;27.60;74.70
50556;DHT22;36508;52.512;13.450;2023-04-10T11:12:11;27.30;79.30
50556;DHT22;36508;52.512;13.450;2023-04-10T11:14:38;28.30;78.30
50556;DHT22;36508;52.512;13.450;2023-04-10T11:17:04;28.80;77.40
50556;DHT22;36508;52.512;13.450;2023-04-10T11:19:56;29.30;75.60
50556;DHT22;36508;52.512;13.450;2023-04-10T11:22:23;29.80;74.50
50556;DHT22;36508;52.512;13.450;2023-04-10T11:24:58;29.90;70.50
50556;DHT22;36508;52.512;13.450;2023-04-10T11:27:45;30.10;71.40
50556;DHT22;36508;52.512;13.450;2023-04-10T11:30:43;30.50;70.70
50556;DHT22;36508;52.512;13.450;2023-04-10T11:33:16;30.30;69.00
50556;DHT22;36508;52.512;13.450;2023-04-10T11:35:45;30.10;67.70
50556;DHT22;36508;52.512;13.450;2023-04-10T11:38:15;30.00;66.60
50556;DHT22;36508;52.512;13.450;2023-04-10T11:41:01;30.30;67.00
50556;DHT22;36508;52.512;13.450;2023-04-10T11:43:28;30.80;63.60
50556;DHT22;36508;52.512;13.450;2023-04-10T11:46:02;30.50;63.70
50556;DHT22;36508;52.512;13.450;2023-04-10T11:48:28;30.90;63.40
50556;DHT22;36508;52.512;13.450;2023-04-10T11:50:54;31.00;62.50
50556;DHT22;36508;52.512;13.450;2023-04-10T11:53:20;31.30;61.30
50556;DHT22;36508;52.512;13.450;2023-04-10T11:55:46;31.10;59.20
50556;DHT22;36508;52.512;13.450;2023-04-10T11:58:25;31.50;59.00
50556;DHT22;36508;52.512;13.450;2023-04-10T12:03:39;31.90;58.40
50556;DHT22;36508;52.512;13.450;2023-04-10T12:06:10;31.80;58.30
50556;DHT22;36508;52.512;13.450;2023-04-10T12:08:46;31.20;57.10
50556;DHT22;36508;52.512;13.450;2023-04-10T12:11:17;30.30;58.30
50556;DHT22;36508;52.512;13.450;2023-04-10T12:13:44;29.90;59.90
50556;DHT22;36508;52.512;13.450;2023-04-10T12:16:11;30.20;59.10
50556;DHT22;36508;52.512;13.450;2023-04-10T12:18:36;30.60;58.70
50556;DHT22;36508;52.512;13.450;2023-04-10T12:21:03;30.40;58.00
50556;DHT22;36508;52.512;13.450;2023-04-10T12:23:29;31.30;57.50
50556;DHT22;36508;52.512;13.450;2023-04-10T12:28:32;31.60;54.70
50556;DHT22;36508;52.512;13.450;2023-04-10T12:30:58;30.80;55.00
50556;DHT22;36508;52.512;13.450;2023-04-10T12:33:24;30.30;55.00
50556;DHT22;36508;52.512;13.450;2023-04-10T12:35:50;30.30;55.80
50556;DHT22;36508;52.512;13.450;2023-04-10T12:38:42;29.40;56.50
50556;DHT22;36508;52.512;13.450;2023-04-10T12:41:11;30.20;57.20
50556;DHT22;36508;52.512;13.450;2023-04-10T12:43:41;30.00;55.80
50556;DHT22;36508;52.512;13.450;2023-04-10T12:46:25;29.40;57.40
50556;DHT22;36508;52.512;13.450;2023-04-10T12:48:51;27.40;56.10
50556;DHT22;36508;52.512;13.450;2023-04-10T12:51:17;27.20;58.70
50556;DHT22;36508;52.512;13.450;2023-04-10T12:53:46;27.80;59.00
50556;DHT22;36508;52.512;13.450;2023-04-10T12:56:12;28.80;57.40
50556;DHT22;36508;52.512;13.450;2023-04-10T12:58:42;29.90;55.80
50556;DHT22;36508;52.512;13.450;2023-04-10T13:01:08;31.30;55.30
50556;DHT22;36508;52.512;13.450;2023-04-10T13:03:38;32.00;53.40
50556;DHT22;36508;52.512;13.450;2023-04-10T13:06:07;31.20;51.80
50556;DHT22;36508;52.512;13.450;2023-04-10T13:08:36;29.80;52.90
50556;DHT22;36508;52.512;13.450;2023-04-10T13:11:01;29.40;54.00
50556;DHT22;36508;52.512;13.450;2023-04-10T13:13:31;29.10;54.40
50556;DHT22;36508;52.512;13.450;2023-04-10T13:16:00;28.30;55.00
50556;DHT22;36508;52.512;13.450;2023-04-10T13:18:25;29.00;55.90
50556;DHT22;36508;52.512;13.450;2023-04-10T13:20:51;28.60;55.90
50556;DHT22;36508;52.512;13.450;2023-04-10T13:23:17;29.10;55.50
50556;DHT22;36508;52.512;13.450;2023-04-10T13:25:42;29.50;54.90
50556;DHT22;36508;52.512;13.450;2023-04-10T13:28:08;28.80;55.50
50556;DHT22;36508;52.512;13.450;2023-04-10T13:30:39;28.10;55.60
50556;DHT22;36508;52.512;13.450;2023-04-10T13:33:07;27.00;56.80
50556;DHT22;36508;52.512;13.450;2023-04-10T13:35:36;25.70;58.50
50556;DHT22;36508;52.512;13.450;2023-04-10T13:38:02;25.10;61.20
50556;DHT22;36508;52.512;13.450;2023-04-10T13:40:27;25.70;61.20
50556;DHT22;36508;52.512;13.450;2023-04-10T13:42:53;26.40;59.90
50556;DHT22;36508;52.512;13.450;2023-04-10T13:45:19;26.40;59.10
50556;DHT22;36508;52.512;13.450;2023-04-10T13:47:44;26.20;60.20
50556;DHT22;36508;52.512;13.450;2023-04-10T13:50:10;25.90;59.90
50556;DHT22;36508;52.512;13.450;2023-04-10T13:52:36;24.10;61.80
50556;DHT22;36508;52.512;13.450;2023-04-10T13:55:01;24.50;63.30
50556;DHT22;36508;52.512;13.450;2023-04-10T13:57:27;25.60;63.40
50556;DHT22;36508;52.512;13.450;2023-04-10T13:59:53;26.90;60.90
50556;DHT22;36508;52.512;13.450;2023-04-10T14:02:18;28.00;58.60
50556;DHT22;36508;52.512;13.450;2023-04-10T14:04:44;27.70;57.60
50556;DHT22;36508;52.512;13.450;2023-04-10T14:07:10;26.90;58.00
50556;DHT22;36508;52.512;13.450;2023-04-10T14:09:36;25.70;59.60
50556;DHT22;36508;52.512;13.450;2023-04-10T14:12:02;24.30;61.00
50556;DHT22;36508;52.512;13.450;2023-04-10T14:14:28;23.90;62.50
50556;DHT22;36508;52.512;13.450;2023-04-10T14:16:53;24.00;63.10
50556;DHT22;36508;52.512;13.450;2023-04-10T14:19:19;24.60;62.90
50556;DHT22;36508;52.512;13.450;2023-04-10T14:21:45;26.10;61.20
50556;DHT22;36508;52.512;13.450;2023-04-10T14:24:10;27.10;59.40
50556;DHT22;36508;52.512;13.450;2023-04-10T14:26:36;27.80;58.20
50556;DHT22;36508;52.512;13.450;2023-04-10T14:29:02;28.20;57.90
50556;DHT22;36508;52.512;13.450;2023-04-10T14:31:28;28.50;57.90
50556;DHT22;36508;52.512;13.450;2023-04-10T14:33:53;28.60;58.10
50556;DHT22;36508;52.512;13.450;2023-04-10T14:36:19;28.70;57.80
50556;DHT22;36508;52.512;13.450;2023-04-10T14:38:44;28.60;57.80
50556;DHT22;36508;52.512;13.450;2023-04-10T14:41:10;27.60;58.20
50556;DHT22;36508;52.512;13.450;2023-04-10T14:43:36;26.30;59.60
50556;DHT22;36508;52.512;13.450;2023-04-10T14:46:05;25.20;61.40
50556;DHT22;36508;52.512;13.450;2023-04-10T14:48:38;24.10;64.10
50556;DHT22;36508;52.512;13.450;2023-04-10T14:51:07;23.70;65.70
50556;DHT22;36508;52.512;13.450;2023-04-10T14:53:37;23.50;64.70
50556;DHT22;36508;52.512;13.450;2023-04-10T14:56:11;23.60;64.00
50556;DHT22;36508;52.512;13.450;2023-04-10T14:58:37;23.10;63.10
50556;DHT22;36508;52.512;13.450;2023-04-10T15:01:06;22.40;65.40
50556;DHT22;36508;52.512;13.450;2023-04-10T15:03:32;22.20;66.70
50556;DHT22;36508;52.512;13.450;2023-04-10T15:05:59;22.20;66.40
50556;DHT22;36508;52.512;13.450;2023-04-10T15:08:24;23.00;66.50
50556;DHT22;36508;52.512;13.450;2023-04-10T15:10:50;23.40;64.50
50556;DHT22;36508;52.512;13.450;2023-04-10T15:13:17;24.10;63.50
50556;DHT22;36508;52.512;13.450;2023-04-10T15:15:44;25.10;61.90
50556;DHT22;36508;52.512;13.450;2023-04-10T15:18:09;25.80;60.30
50556;DHT22;36508;52.512;13.450;2023-04-10T15:20:35;25.70;60.70
50556;DHT22;36508;52.512;13.450;2023-04-10T15:23:01;26.00;59.50
50556;DHT22;36508;52.512;13.450;2023-04-10T15:25:27;26.10;59.30
50556;DHT22;36508;52.512;13.450;2023-04-10T15:27:56;26.20;59.50
50556;DHT22;36508;52.512;13.450;2023-04-10T15:30:21;25.90;59.40
50556;DHT22;36508;52.512;13.450;2023-04-10T15:32:48;25.60;59.10
50556;DHT22;36508;52.512;13.450;2023-04-10T15:35:13;25.20;59.50
50556;DHT22;36508;52.512;13.450;2023-04-10T15:37:39;24.20;60.30
50556;DHT22;36508;52.512;13.450;2023-04-10T15:40:05;23.70;60.80
50556;DHT22;36508;52.512;13.450;2023-04-10T15:42:35;22.90;61.20
50556;DHT22;36508;52.512;13.450;2023-04-10T15:45:01;22.30;62.60
50556;DHT22;36508;52.512;13.450;2023-04-10T15:47:27;21.50;63.00
50556;DHT22;36508;52.512;13.450;2023-04-10T15:49:55;21.40;63.90
50556;DHT22;36508;52.512;13.450;2023-04-10T15:52:20;21.80;63.30
50556;DHT22;36508;52.512;13.450;2023-04-10T15:54:46;22.80;63.50
50556;DHT22;36508;52.512;13.450;2023-04-10T15:57:11;23.20;60.70